sensor_id;sensor_type;location;lat;lon;timestamp;pressure;altitude;pressure_sealevel;temperature;humidity
65659;BME280;60181;53.258;6.932;2023-11-18T00:02:19;102527.98;;;14.55;53.84
65659;BME280;60181;53.258;6.932;2023-11-18T00:06:39;102526.00;;;14.52;53.67
65659;BME280;60181;53.258;6.932;2023-11-18T00:10:59;102523.32;;;14.49;53.55
65659;BME280;60181;53.258;6.932;2023-11-18T00:15:19;102522.57;;;14.47;53.60
65659;BME280;60181;53.258;6.932;2023-11-18T00:19:39;102521.73;;;14.44;53.55
65659;BME280;60181;53.258;6.932;2023-11-18T00:23:59;102521.11;;;14.42;53.52
65659;BME280;60181;53.258;6.932;2023-11-18T00:28:19;102521.44;;;14.40;53.57
65659;BME280;60181;53.258;6.932;2023-11-18T00:32:39;102522.09;;;14.37;53.48
65659;BME280;60181;53.258;6.932;2023-11-18T00:36:59;102523.00;;;14.35;53.19
65659;BME280;60181;53.258;6.932;2023-11-18T00:41:19;102523.36;;;14.33;53.19
65659;BME280;60181;53.258;6.932;2023-11-18T00:45:39;102522.86;;;14.32;53.16
65659;BME280;60181;53.258;6.932;2023-11-18T00:49:59;102521.90;;;14.30;53.06
65659;BME280;60181;53.258;6.932;2023-11-18T00:54:19;102520.58;;;14.28;52.95
65659;BME280;60181;53.258;6.932;2023-11-18T00:58:39;102520.08;;;14.26;53.10
65659;BME280;60181;53.258;6.932;2023-11-18T01:02:59;102519.21;;;14.25;52.84
65659;BME280;60181;53.258;6.932;2023-11-18T01:07:19;102519.65;;;14.23;52.75
65659;BME280;60181;53.258;6.932;2023-11-18T01:11:39;102521.39;;;14.21;52.99
65659;BME280;60181;53.258;6.932;2023-11-18T01:15:59;102521.17;;;14.20;53.18
65659;BME280;60181;53.258;6.932;2023-11-18T01:20:19;102520.89;;;14.19;53.33
65659;BME280;60181;53.258;6.932;2023-11-18T01:24:39;102520.02;;;14.18;53.44
65659;BME280;60181;53.258;6.932;2023-11-18T01:28:59;102518.81;;;14.17;53.40
65659;BME280;60181;53.258;6.932;2023-11-18T01:33:19;102518.93;;;14.16;53.19
65659;BME280;60181;53.258;6.932;2023-11-18T01:37:39;102519.56;;;14.15;53.08
65659;BME280;60181;53.258;6.932;2023-11-18T01:41:59;102520.25;;;14.14;53.10
65659;BME280;60181;53.258;6.932;2023-11-18T01:46:19;102520.29;;;14.13;52.87
65659;BME280;60181;53.258;6.932;2023-11-18T01:50:39;102519.37;;;14.12;52.66
65659;BME280;60181;53.258;6.932;2023-11-18T01:54:59;102519.74;;;14.11;52.99
65659;BME280;60181;53.258;6.932;2023-11-18T01:59:19;102518.80;;;14.11;52.80
65659;BME280;60181;53.258;6.932;2023-11-18T02:03:39;102518.21;;;14.10;52.95
65659;BME280;60181;53.258;6.932;2023-11-18T02:07:59;102515.05;;;14.09;52.65
65659;BME280;60181;53.258;6.932;2023-11-18T02:12:23;102511.16;;;14.09;52.55
65659;BME280;60181;53.258;6.932;2023-11-18T02:16:39;102507.95;;;14.07;52.61
65659;BME280;60181;53.258;6.932;2023-11-18T02:20:59;102504.36;;;14.06;52.78
65659;BME280;60181;53.258;6.932;2023-11-18T02:25:19;102502.10;;;14.05;52.68
65659;BME280;60181;53.258;6.932;2023-11-18T02:29:39;102501.50;;;14.04;52.82
65659;BME280;60181;53.258;6.932;2023-11-18T02:34:10;102502.04;;;14.03;52.94
65659;BME280;60181;53.258;6.932;2023-11-18T02:38:30;102503.23;;;14.03;53.21
65659;BME280;60181;53.258;6.932;2023-11-18T02:42:39;102504.35;;;14.02;53.26
65659;BME280;60181;53.258;6.932;2023-11-18T02:46:59;102504.96;;;14.02;53.14
65659;BME280;60181;53.258;6.932;2023-11-18T02:51:19;102504.59;;;14.03;53.04
65659;BME280;60181;53.258;6.932;2023-11-18T02:55:39;102503.65;;;14.03;53.22
65659;BME280;60181;53.258;6.932;2023-11-18T02:59:59;102502.37;;;14.02;53.30
65659;BME280;60181;53.258;6.932;2023-11-18T03:04:19;102501.75;;;14.00;53.47
65659;BME280;60181;53.258;6.932;2023-11-18T03:08:39;102501.21;;;13.99;53.27
65659;BME280;60181;53.258;6.932;2023-11-18T03:12:59;102497.95;;;13.98;53.17
65659;BME280;60181;53.258;6.932;2023-11-18T03:17:19;102493.32;;;13.97;53.19
65659;BME280;60181;53.258;6.932;2023-11-18T03:21:39;102488.88;;;13.96;53.33
65659;BME280;60181;53.258;6.932;2023-11-18T03:25:59;102486.49;;;13.96;52.99
65659;BME280;60181;53.258;6.932;2023-11-18T03:30:18;102484.34;;;13.98;53.98
65659;BME280;60181;53.258;6.932;2023-11-18T03:34:39;102481.69;;;14.01;52.48
65659;BME280;60181;53.258;6.932;2023-11-18T03:38:58;102478.93;;;14.04;52.11
65659;BME280;60181;53.258;6.932;2023-11-18T03:43:18;102476.60;;;14.06;51.95
65659;BME280;60181;53.258;6.932;2023-11-18T03:47:38;102475.35;;;14.08;51.72
65659;BME280;60181;53.258;6.932;2023-11-18T03:51:58;102472.61;;;14.09;51.45
65659;BME280;60181;53.258;6.932;2023-11-18T03:56:19;102467.58;;;14.09;51.25
65659;BME280;60181;53.258;6.932;2023-11-18T04:00:38;102464.53;;;14.10;51.05
65659;BME280;60181;53.258;6.932;2023-11-18T04:04:58;102463.46;;;14.09;50.92
65659;BME280;60181;53.258;6.932;2023-11-18T04:09:18;102462.72;;;14.09;50.77
65659;BME280;60181;53.258;6.932;2023-11-18T04:13:38;102461.39;;;14.09;50.75
65659;BME280;60181;53.258;6.932;2023-11-18T04:17:58;102454.92;;;14.08;50.65
65659;BME280;60181;53.258;6.932;2023-11-18T04:22:18;102445.00;;;14.07;50.84
65659;BME280;60181;53.258;6.932;2023-11-18T04:26:38;102436.05;;;14.04;51.26
65659;BME280;60181;53.258;6.932;2023-11-18T04:30:59;102430.64;;;14.00;51.34
65659;BME280;60181;53.258;6.932;2023-11-18T04:35:19;102424.04;;;13.96;51.58
65659;BME280;60181;53.258;6.932;2023-11-18T04:39:38;102419.53;;;13.92;51.99
65659;BME280;60181;53.258;6.932;2023-11-18T04:43:58;102416.44;;;13.89;52.21
65659;BME280;60181;53.258;6.932;2023-11-18T04:48:18;102415.20;;;13.87;52.13
65659;BME280;60181;53.258;6.932;2023-11-18T04:52:38;102413.05;;;13.84;52.44
65659;BME280;60181;53.258;6.932;2023-11-18T04:56:58;102407.85;;;13.82;52.28
65659;BME280;60181;53.258;6.932;2023-11-18T05:01:18;102401.90;;;13.80;52.25
65659;BME280;60181;53.258;6.932;2023-11-18T05:05:39;102399.94;;;13.78;52.01
65659;BME280;60181;53.258;6.932;2023-11-18T05:09:58;102398.24;;;13.77;52.29
65659;BME280;60181;53.258;6.932;2023-11-18T05:14:18;102396.26;;;13.75;52.36
65659;BME280;60181;53.258;6.932;2023-11-18T05:18:38;102394.33;;;13.74;52.36
65659;BME280;60181;53.258;6.932;2023-11-18T05:22:58;102392.05;;;13.72;52.28
65659;BME280;60181;53.258;6.932;2023-11-18T05:27:18;102388.30;;;13.71;52.28
65659;BME280;60181;53.258;6.932;2023-11-18T05:31:38;102383.64;;;13.70;52.38
65659;BME280;60181;53.258;6.932;2023-11-18T05:35:58;102380.80;;;13.69;52.33
65659;BME280;60181;53.258;6.932;2023-11-18T05:40:18;102376.72;;;13.68;52.23
65659;BME280;60181;53.258;6.932;2023-11-18T05:44:38;102375.20;;;13.67;52.39
65659;BME280;60181;53.258;6.932;2023-11-18T05:49:01;102376.01;;;13.66;52.40
65659;BME280;60181;53.258;6.932;2023-11-18T05:53:18;102376.46;;;13.65;52.40
65659;BME280;60181;53.258;6.932;2023-11-18T05:57:38;102377.86;;;13.64;52.68
65659;BME280;60181;53.258;6.932;2023-11-18T06:01:58;102379.88;;;13.63;52.49
65659;BME280;60181;53.258;6.932;2023-11-18T06:06:18;102379.38;;;13.62;52.44
65659;BME280;60181;53.258;6.932;2023-11-18T06:10:38;102376.90;;;13.62;52.74
65659;BME280;60181;53.258;6.932;2023-11-18T06:14:58;102374.22;;;13.61;53.15
65659;BME280;60181;53.258;6.932;2023-11-18T06:19:18;102371.62;;;13.60;52.98
65659;BME280;60181;53.258;6.932;2023-11-18T06:23:38;102368.91;;;13.60;53.22
65659;BME280;60181;53.258;6.932;2023-11-18T06:27:58;102365.91;;;13.59;53.25
65659;BME280;60181;53.258;6.932;2023-11-18T06:32:18;102363.44;;;13.59;53.20
65659;BME280;60181;53.258;6.932;2023-11-18T06:36:38;102360.18;;;13.58;53.38
65659;BME280;60181;53.258;6.932;2023-11-18T06:40:58;102356.52;;;13.57;53.39
65659;BME280;60181;53.258;6.932;2023-11-18T06:45:18;102356.59;;;13.57;53.12
65659;BME280;60181;53.258;6.932;2023-11-18T06:49:38;102358.33;;;13.57;53.29
65659;BME280;60181;53.258;6.932;2023-11-18T06:53:58;102358.00;;;13.57;53.67
65659;BME280;60181;53.258;6.932;2023-11-18T06:58:18;102355.66;;;13.60;53.95
65659;BME280;60181;53.258;6.932;2023-11-18T07:02:38;102351.97;;;13.65;54.06
65659;BME280;60181;53.258;6.932;2023-11-18T07:06:58;102349.34;;;13.69;54.76
65659;BME280;60181;53.258;6.932;2023-11-18T07:11:18;102346.22;;;13.73;54.75
65659;BME280;60181;53.258;6.932;2023-11-18T07:15:38;102345.29;;;13.77;55.11
65659;BME280;60181;53.258;6.932;2023-11-18T07:19:58;102346.91;;;13.80;55.13
65659;BME280;60181;53.258;6.932;2023-11-18T07:24:18;102348.97;;;13.83;55.24
65659;BME280;60181;53.258;6.932;2023-11-18T07:28:38;102353.54;;;13.85;55.54
65659;BME280;60181;53.258;6.932;2023-11-18T07:32:58;102356.34;;;13.88;55.72
65659;BME280;60181;53.258;6.932;2023-11-18T07:37:18;102358.70;;;13.89;55.89
65659;BME280;60181;53.258;6.932;2023-11-18T07:41:38;102360.27;;;13.92;56.12
65659;BME280;60181;53.258;6.932;2023-11-18T07:45:58;102361.84;;;13.94;55.92
65659;BME280;60181;53.258;6.932;2023-11-18T07:50:18;102360.85;;;13.96;56.10
65659;BME280;60181;53.258;6.932;2023-11-18T07:54:38;102359.83;;;13.97;56.48
65659;BME280;60181;53.258;6.932;2023-11-18T07:58:58;102358.22;;;13.98;56.51
65659;BME280;60181;53.258;6.932;2023-11-18T08:03:18;102354.72;;;13.99;56.64
65659;BME280;60181;53.258;6.932;2023-11-18T08:07:38;102352.62;;;14.00;56.64
65659;BME280;60181;53.258;6.932;2023-11-18T08:11:58;102350.23;;;14.01;56.90
65659;BME280;60181;53.258;6.932;2023-11-18T08:16:18;102349.13;;;14.02;56.79
65659;BME280;60181;53.258;6.932;2023-11-18T08:20:38;102344.89;;;14.03;56.73
65659;BME280;60181;53.258;6.932;2023-11-18T08:24:58;102341.72;;;14.04;56.98
65659;BME280;60181;53.258;6.932;2023-11-18T08:29:18;102338.62;;;14.05;56.94
65659;BME280;60181;53.258;6.932;2023-11-18T08:33:38;102336.52;;;14.06;56.92
65659;BME280;60181;53.258;6.932;2023-11-18T08:37:58;102335.83;;;14.07;57.09
65659;BME280;60181;53.258;6.932;2023-11-18T08:42:18;102330.92;;;14.08;57.23
65659;BME280;60181;53.258;6.932;2023-11-18T08:46:38;102324.87;;;14.09;57.50
65659;BME280;60181;53.258;6.932;2023-11-18T08:50:58;102318.35;;;14.11;57.67
65659;BME280;60181;53.258;6.932;2023-11-18T08:55:18;102313.37;;;14.12;57.51
65659;BME280;60181;53.258;6.932;2023-11-18T08:59:38;102307.23;;;14.13;57.45
65659;BME280;60181;53.258;6.932;2023-11-18T09:03:58;102299.94;;;14.17;59.13
65659;BME280;60181;53.258;6.932;2023-11-18T09:08:18;102291.90;;;14.20;58.56
65659;BME280;60181;53.258;6.932;2023-11-18T09:12:38;102285.97;;;14.22;59.30
65659;BME280;60181;53.258;6.932;2023-11-18T09:16:58;102277.51;;;14.24;59.50
65659;BME280;60181;53.258;6.932;2023-11-18T09:21:18;102272.78;;;14.25;59.58
65659;BME280;60181;53.258;6.932;2023-11-18T09:25:38;102268.37;;;14.31;62.10
65659;BME280;60181;53.258;6.932;2023-11-18T09:29:58;102262.59;;;14.35;61.47
65659;BME280;60181;53.258;6.932;2023-11-18T09:34:18;102258.92;;;14.36;61.46
65659;BME280;60181;53.258;6.932;2023-11-18T09:38:39;102256.66;;;14.37;61.75
65659;BME280;60181;53.258;6.932;2023-11-18T09:42:58;102254.26;;;14.36;61.64
65659;BME280;60181;53.258;6.932;2023-11-18T09:47:18;102251.62;;;14.36;61.26
65659;BME280;60181;53.258;6.932;2023-11-18T09:51:38;102251.78;;;14.36;61.09
65659;BME280;60181;53.258;6.932;2023-11-18T09:55:59;102248.16;;;14.36;60.83
65659;BME280;60181;53.258;6.932;2023-11-18T10:00:18;102243.46;;;14.37;60.80
65659;BME280;60181;53.258;6.932;2023-11-18T10:04:38;102237.03;;;14.37;60.88
65659;BME280;60181;53.258;6.932;2023-11-18T10:08:58;102229.78;;;14.37;60.67
65659;BME280;60181;53.258;6.932;2023-11-18T10:13:18;102224.21;;;14.38;60.69
65659;BME280;60181;53.258;6.932;2023-11-18T10:17:41;102218.12;;;14.38;60.65
65659;BME280;60181;53.258;6.932;2023-11-18T10:21:58;102211.27;;;14.39;60.62
65659;BME280;60181;53.258;6.932;2023-11-18T10:26:18;102208.34;;;14.39;60.54
65659;BME280;60181;53.258;6.932;2023-11-18T10:30:43;102206.04;;;14.40;60.70
65659;BME280;60181;53.258;6.932;2023-11-18T10:34:58;102201.12;;;14.40;60.62
65659;BME280;60181;53.258;6.932;2023-11-18T10:39:18;102197.09;;;14.40;60.58
65659;BME280;60181;53.258;6.932;2023-11-18T10:43:38;102191.19;;;14.41;60.74
65659;BME280;60181;53.258;6.932;2023-11-18T10:47:58;102183.69;;;14.42;60.68
65659;BME280;60181;53.258;6.932;2023-11-18T10:52:19;102175.03;;;14.42;60.68
65659;BME280;60181;53.258;6.932;2023-11-18T10:56:38;102168.14;;;14.42;60.79
65659;BME280;60181;53.258;6.932;2023-11-18T11:00:58;102161.05;;;14.42;60.83
65659;BME280;60181;53.258;6.932;2023-11-18T11:05:29;102154.05;;;14.43;60.75
65659;BME280;60181;53.258;6.932;2023-11-18T11:09:38;102148.11;;;14.43;60.91
65659;BME280;60181;53.258;6.932;2023-11-18T11:14:00;102139.04;;;14.43;60.95
65659;BME280;60181;53.258;6.932;2023-11-18T11:18:20;102129.74;;;14.43;60.91
65659;BME280;60181;53.258;6.932;2023-11-18T11:22:38;102120.67;;;14.42;60.94
65659;BME280;60181;53.258;6.932;2023-11-18T11:27:04;102112.42;;;14.43;60.81
65659;BME280;60181;53.258;6.932;2023-11-18T11:31:21;102103.63;;;14.44;60.85
65659;BME280;60181;53.258;6.932;2023-11-18T11:35:40;102096.91;;;14.44;60.92
65659;BME280;60181;53.258;6.932;2023-11-18T11:39:58;102090.73;;;14.45;60.88
65659;BME280;60181;53.258;6.932;2023-11-18T11:44:18;102083.92;;;14.46;60.84
65659;BME280;60181;53.258;6.932;2023-11-18T11:48:38;102076.01;;;14.46;60.95
65659;BME280;60181;53.258;6.932;2023-11-18T11:53:03;102069.20;;;14.47;61.04
65659;BME280;60181;53.258;6.932;2023-11-18T11:57:18;102066.40;;;14.47;61.11
65659;BME280;60181;53.258;6.932;2023-11-18T12:01:38;102061.05;;;14.47;61.14
65659;BME280;60181;53.258;6.932;2023-11-18T12:05:58;102055.39;;;14.48;61.21
65659;BME280;60181;53.258;6.932;2023-11-18T12:10:18;102052.83;;;14.48;61.16
65659;BME280;60181;53.258;6.932;2023-11-18T12:14:50;102047.92;;;14.49;61.95
65659;BME280;60181;53.258;6.932;2023-11-18T12:23:18;102034.59;;;14.53;62.20
65659;BME280;60181;53.258;6.932;2023-11-18T12:27:43;102032.15;;;14.53;62.47
65659;BME280;60181;53.258;6.932;2023-11-18T12:31:58;102029.60;;;14.54;62.41
65659;BME280;60181;53.258;6.932;2023-11-18T12:40:53;102022.66;;;14.54;62.33
65659;BME280;60181;53.258;6.932;2023-11-18T12:45:16;102012.77;;;14.54;62.22
65659;BME280;60181;53.258;6.932;2023-11-18T12:49:18;102002.80;;;14.54;62.05
65659;BME280;60181;53.258;6.932;2023-11-18T12:53:38;101991.94;;;14.54;62.02
65659;BME280;60181;53.258;6.932;2023-11-18T12:58:00;101981.48;;;14.55;62.07
65659;BME280;60181;53.258;6.932;2023-11-18T13:02:18;101971.61;;;14.56;62.05
65659;BME280;60181;53.258;6.932;2023-11-18T13:06:38;101963.45;;;14.56;62.02
65659;BME280;60181;53.258;6.932;2023-11-18T13:10:58;101954.17;;;14.57;62.02
65659;BME280;60181;53.258;6.932;2023-11-18T13:15:18;101948.27;;;14.58;61.98
65659;BME280;60181;53.258;6.932;2023-11-18T13:19:38;101944.48;;;14.58;62.04
65659;BME280;60181;53.258;6.932;2023-11-18T13:23:58;101941.60;;;14.58;62.16
65659;BME280;60181;53.258;6.932;2023-11-18T13:28:18;101936.27;;;14.59;62.17
65659;BME280;60181;53.258;6.932;2023-11-18T13:32:40;101928.06;;;14.58;62.16
65659;BME280;60181;53.258;6.932;2023-11-18T13:36:58;101922.41;;;14.59;62.22
65659;BME280;60181;53.258;6.932;2023-11-18T13:41:32;101914.71;;;14.58;62.22
65659;BME280;60181;53.258;6.932;2023-11-18T13:45:38;101914.71;;;14.58;62.19
65659;BME280;60181;53.258;6.932;2023-11-18T13:49:58;101911.99;;;14.58;62.34
65659;BME280;60181;53.258;6.932;2023-11-18T13:54:18;101907.53;;;14.58;62.35
65659;BME280;60181;53.258;6.932;2023-11-18T13:58:38;101899.29;;;14.58;62.30
65659;BME280;60181;53.258;6.932;2023-11-18T14:02:58;101889.64;;;14.58;62.26
65659;BME280;60181;53.258;6.932;2023-11-18T14:07:18;101879.53;;;14.59;62.31
65659;BME280;60181;53.258;6.932;2023-11-18T14:11:38;101864.11;;;14.59;62.27
65659;BME280;60181;53.258;6.932;2023-11-18T14:15:58;101847.46;;;14.59;62.23
65659;BME280;60181;53.258;6.932;2023-11-18T14:20:18;101828.86;;;14.60;62.26
65659;BME280;60181;53.258;6.932;2023-11-18T14:24:38;101815.91;;;14.61;62.29
65659;BME280;60181;53.258;6.932;2023-11-18T14:28:58;101801.59;;;14.61;62.31
65659;BME280;60181;53.258;6.932;2023-11-18T14:33:18;101786.42;;;14.62;62.33
65659;BME280;60181;53.258;6.932;2023-11-18T14:37:38;101770.21;;;14.62;62.31
65659;BME280;60181;53.258;6.932;2023-11-18T14:41:58;101755.20;;;14.63;62.39
65659;BME280;60181;53.258;6.932;2023-11-18T14:46:18;101740.61;;;14.63;62.44
65659;BME280;60181;53.258;6.932;2023-11-18T14:50:38;101726.84;;;14.63;62.42
65659;BME280;60181;53.258;6.932;2023-11-18T14:54:58;101716.89;;;14.63;62.44
65659;BME280;60181;53.258;6.932;2023-11-18T14:59:18;101706.09;;;14.64;62.53
65659;BME280;60181;53.258;6.932;2023-11-18T15:03:38;101694.05;;;14.64;62.59
65659;BME280;60181;53.258;6.932;2023-11-18T15:07:58;101681.27;;;14.64;62.63
65659;BME280;60181;53.258;6.932;2023-11-18T15:12:18;101667.25;;;14.64;62.68
65659;BME280;60181;53.258;6.932;2023-11-18T15:16:37;101653.74;;;14.64;62.67
65659;BME280;60181;53.258;6.932;2023-11-18T15:20:57;101640.45;;;14.64;62.75
65659;BME280;60181;53.258;6.932;2023-11-18T15:25:17;101629.16;;;14.64;62.64
65659;BME280;60181;53.258;6.932;2023-11-18T15:29:37;101617.86;;;14.64;62.68
65659;BME280;60181;53.258;6.932;2023-11-18T15:33:58;101606.92;;;14.64;62.75
65659;BME280;60181;53.258;6.932;2023-11-18T15:38:17;101596.29;;;14.65;62.73
65659;BME280;60181;53.258;6.932;2023-11-18T15:42:38;101589.14;;;14.66;62.94
65659;BME280;60181;53.258;6.932;2023-11-18T15:46:57;101581.94;;;14.68;62.76
65659;BME280;60181;53.258;6.932;2023-11-18T15:51:17;101569.02;;;14.68;62.76
65659;BME280;60181;53.258;6.932;2023-11-18T15:55:37;101554.21;;;14.69;62.77
65659;BME280;60181;53.258;6.932;2023-11-18T15:59:57;101537.47;;;14.69;62.78
65659;BME280;60181;53.258;6.932;2023-11-18T16:04:17;101524.69;;;14.69;62.83
65659;BME280;60181;53.258;6.932;2023-11-18T16:08:37;101514.65;;;14.70;62.90
65659;BME280;60181;53.258;6.932;2023-11-18T16:12:58;101500.80;;;14.70;62.89
65659;BME280;60181;53.258;6.932;2023-11-18T16:17:17;101483.56;;;14.70;62.87
65659;BME280;60181;53.258;6.932;2023-11-18T16:21:37;101469.96;;;14.70;62.90
65659;BME280;60181;53.258;6.932;2023-11-18T16:25:57;101455.53;;;14.71;62.82
65659;BME280;60181;53.258;6.932;2023-11-18T16:30:18;101440.11;;;14.71;62.91
65659;BME280;60181;53.258;6.932;2023-11-18T16:34:37;101429.41;;;14.71;62.89
65659;BME280;60181;53.258;6.932;2023-11-18T16:38:57;101421.41;;;14.72;62.90
65659;BME280;60181;53.258;6.932;2023-11-18T16:43:17;101411.77;;;14.72;62.91
65659;BME280;60181;53.258;6.932;2023-11-18T16:47:38;101399.06;;;14.72;62.95
65659;BME280;60181;53.258;6.932;2023-11-18T16:51:57;101388.45;;;14.72;62.96
65659;BME280;60181;53.258;6.932;2023-11-18T16:56:17;101376.17;;;14.72;62.95
65659;BME280;60181;53.258;6.932;2023-11-18T17:00:37;101363.97;;;14.72;62.99
65659;BME280;60181;53.258;6.932;2023-11-18T17:04:57;101353.33;;;14.73;63.00
65659;BME280;60181;53.258;6.932;2023-11-18T17:09:17;101347.47;;;14.73;63.04
65659;BME280;60181;53.258;6.932;2023-11-18T17:13:37;101342.05;;;14.73;63.07
65659;BME280;60181;53.258;6.932;2023-11-18T17:17:57;101333.73;;;14.75;63.33
65659;BME280;60181;53.258;6.932;2023-11-18T17:22:17;101330.04;;;14.79;63.64
65659;BME280;60181;53.258;6.932;2023-11-18T17:26:37;101324.94;;;14.81;64.02
65659;BME280;60181;53.258;6.932;2023-11-18T17:30:57;101317.86;;;14.82;64.34
65659;BME280;60181;53.258;6.932;2023-11-18T17:35:17;101307.75;;;14.82;64.33
65659;BME280;60181;53.258;6.932;2023-11-18T17:39:37;101299.84;;;14.82;64.24
65659;BME280;60181;53.258;6.932;2023-11-18T17:43:57;101291.92;;;14.82;64.20
65659;BME280;60181;53.258;6.932;2023-11-18T17:48:17;101284.66;;;14.82;64.14
65659;BME280;60181;53.258;6.932;2023-11-18T17:52:38;101278.28;;;14.82;64.13
65659;BME280;60181;53.258;6.932;2023-11-18T17:56:57;101271.61;;;14.82;64.03
65659;BME280;60181;53.258;6.932;2023-11-18T18:01:17;101262.86;;;14.82;64.04
65659;BME280;60181;53.258;6.932;2023-11-18T18:05:37;101254.21;;;14.82;63.98
65659;BME280;60181;53.258;6.932;2023-11-18T18:09:57;101242.41;;;14.82;63.99
65659;BME280;60181;53.258;6.932;2023-11-18T18:14:17;101229.22;;;14.82;63.98
65659;BME280;60181;53.258;6.932;2023-11-18T18:18:37;101217.02;;;14.82;63.94
65659;BME280;60181;53.258;6.932;2023-11-18T18:22:57;101207.20;;;14.81;63.94
65659;BME280;60181;53.258;6.932;2023-11-18T18:27:17;101200.11;;;14.81;63.95
65659;BME280;60181;53.258;6.932;2023-11-18T18:31:37;101192.83;;;14.81;64.06
65659;BME280;60181;53.258;6.932;2023-11-18T18:35:57;101183.84;;;14.81;63.95
65659;BME280;60181;53.258;6.932;2023-11-18T18:40:17;101175.51;;;14.80;64.02
65659;BME280;60181;53.258;6.932;2023-11-18T18:44:37;101165.63;;;14.80;64.02
65659;BME280;60181;53.258;6.932;2023-11-18T18:48:57;101157.05;;;14.80;64.03
65659;BME280;60181;53.258;6.932;2023-11-18T18:53:17;101147.53;;;14.80;63.97
65659;BME280;60181;53.258;6.932;2023-11-18T18:57:37;101139.12;;;14.80;64.01
65659;BME280;60181;53.258;6.932;2023-11-18T19:01:57;101129.22;;;14.80;63.99
65659;BME280;60181;53.258;6.932;2023-11-18T19:06:17;101121.59;;;14.80;63.97
65659;BME280;60181;53.258;6.932;2023-11-18T19:10:37;101113.92;;;14.80;63.97
65659;BME280;60181;53.258;6.932;2023-11-18T19:14:57;101107.31;;;14.81;64.01
65659;BME280;60181;53.258;6.932;2023-11-18T19:19:17;101099.80;;;14.81;64.02
65659;BME280;60181;53.258;6.932;2023-11-18T19:23:37;101096.61;;;14.82;64.03
65659;BME280;60181;53.258;6.932;2023-11-18T19:27:57;101093.83;;;14.82;64.02
65659;BME280;60181;53.258;6.932;2023-11-18T19:32:17;101087.83;;;14.84;64.57
65659;BME280;60181;53.258;6.932;2023-11-18T19:36:37;101080.17;;;14.85;64.25
65659;BME280;60181;53.258;6.932;2023-11-18T19:40:57;101071.09;;;14.85;64.17
65659;BME280;60181;53.258;6.932;2023-11-18T19:45:17;101061.47;;;14.86;64.16
65659;BME280;60181;53.258;6.932;2023-11-18T19:49:37;101052.31;;;14.86;64.17
65659;BME280;60181;53.258;6.932;2023-11-18T19:53:57;101041.60;;;14.86;64.14
65659;BME280;60181;53.258;6.932;2023-11-18T19:58:17;101030.95;;;14.86;64.19
65659;BME280;60181;53.258;6.932;2023-11-18T20:02:37;101021.22;;;14.86;64.29
65659;BME280;60181;53.258;6.932;2023-11-18T20:06:57;101009.59;;;14.86;64.22
65659;BME280;60181;53.258;6.932;2023-11-18T20:11:17;100998.13;;;14.86;64.24
65659;BME280;60181;53.258;6.932;2023-11-18T20:15:37;100987.90;;;14.86;64.27
65659;BME280;60181;53.258;6.932;2023-11-18T20:19:57;100979.74;;;14.86;64.30
65659;BME280;60181;53.258;6.932;2023-11-18T20:24:17;100971.00;;;14.86;64.25
65659;BME280;60181;53.258;6.932;2023-11-18T20:28:37;100960.94;;;14.86;64.25
65659;BME280;60181;53.258;6.932;2023-11-18T20:32:57;100951.93;;;14.86;64.29
65659;BME280;60181;53.258;6.932;2023-11-18T20:37:17;100946.09;;;14.86;64.25
65659;BME280;60181;53.258;6.932;2023-11-18T20:41:37;100941.25;;;14.87;64.25
65659;BME280;60181;53.258;6.932;2023-11-18T20:45:57;100936.61;;;14.87;64.25
65659;BME280;60181;53.258;6.932;2023-11-18T20:50:17;100929.72;;;14.88;64.29
65659;BME280;60181;53.258;6.932;2023-11-18T20:54:37;100922.38;;;14.88;64.28
65659;BME280;60181;53.258;6.932;2023-11-18T20:58:57;100915.69;;;14.88;64.30
65659;BME280;60181;53.258;6.932;2023-11-18T21:03:17;100908.09;;;14.89;64.35
65659;BME280;60181;53.258;6.932;2023-11-18T21:07:37;100899.79;;;14.89;64.35
65659;BME280;60181;53.258;6.932;2023-11-18T21:11:57;100892.11;;;14.89;64.36
65659;BME280;60181;53.258;6.932;2023-11-18T21:16:17;100884.69;;;14.90;64.38
65659;BME280;60181;53.258;6.932;2023-11-18T21:20:37;100878.86;;;14.90;64.40
65659;BME280;60181;53.258;6.932;2023-11-18T21:24:57;100873.00;;;14.90;64.42
65659;BME280;60181;53.258;6.932;2023-11-18T21:29:17;100866.64;;;14.91;64.43
65659;BME280;60181;53.258;6.932;2023-11-18T21:33:37;100858.84;;;14.92;64.82
65659;BME280;60181;53.258;6.932;2023-11-18T21:37:57;100851.59;;;14.95;64.59
65659;BME280;60181;53.258;6.932;2023-11-18T21:42:17;100844.35;;;14.96;64.79
65659;BME280;60181;53.258;6.932;2023-11-18T21:46:37;100837.58;;;14.96;64.63
65659;BME280;60181;53.258;6.932;2023-11-18T21:50:57;100829.69;;;14.97;64.56
65659;BME280;60181;53.258;6.932;2023-11-18T21:55:17;100819.86;;;14.97;64.45
65659;BME280;60181;53.258;6.932;2023-11-18T21:59:37;100812.19;;;14.97;64.42
65659;BME280;60181;53.258;6.932;2023-11-18T22:03:57;100806.36;;;14.98;64.42
65659;BME280;60181;53.258;6.932;2023-11-18T22:08:17;100803.14;;;14.98;64.43
65659;BME280;60181;53.258;6.932;2023-11-18T22:12:40;100797.03;;;14.99;64.95
65659;BME280;60181;53.258;6.932;2023-11-18T22:16:57;100790.01;;;14.98;64.15
65659;BME280;60181;53.258;6.932;2023-11-18T22:21:17;100784.88;;;14.96;64.34
65659;BME280;60181;53.258;6.932;2023-11-18T22:25:37;100779.85;;;14.94;64.16
65659;BME280;60181;53.258;6.932;2023-11-18T22:29:57;100774.46;;;14.93;64.09
65659;BME280;60181;53.258;6.932;2023-11-18T22:34:17;100770.08;;;14.91;64.09
65659;BME280;60181;53.258;6.932;2023-11-18T22:38:37;100765.92;;;14.90;64.18
65659;BME280;60181;53.258;6.932;2023-11-18T22:42:57;100759.90;;;14.88;64.33
65659;BME280;60181;53.258;6.932;2023-11-18T22:47:17;100755.52;;;14.87;64.44